Townsend, Montana
Current Conditions -  °F | °C
As of 6:53 AM on Wednesday 26 Nov 2014 (Local Time) from KHLN Reporting Station
Light Snow Light Snow  
Wind Chill: 30°   Ceiling: 400
Heat Index: 30°   Visibility: 1.7mi
Dew Point: 29°   Wind: 0mph
Humidity: 96%   Direction: NA
Pressure: 30.12"   Gusts: NA
Location:  46.32°N, 111.52°W
Report Text: KHLN 261353Z 00000KT 1 3/4SM -SN BR BKN004 OVC021 M01/M02 A3012 RMK AO2 SLP247 P0002 T10111017
Loading
Personal Weather Stations






























Interactive Weather Map New forecast layout! Learn more

10-Day Weather Forecast

Advertisements
Track Severe Weather on mobile